Time;durP1;ratioP1;P1;durP2;ratioP2;P2;SDS_P1;SDS_P2;PMS_P1;PMS_P2;Temp;Humidity;BMP_temperature;BMP_pressure;BME280_temperature;BME280_humidity;BME280_pressure;Samples;Min_cycle;Max_cycle;Signal;HPM_P1;HPM_P2
2022/12/05 00:01:45;;;;;;;15.20;11.67;;;14.70;96.70;;;;;;4223449;28;20264;-71
2022/12/05 00:03:48;;;;;;;14.70;11.37;;;14.60;96.70;;;;;;4230314;28;20263;-71
2022/12/05 00:05:50;;;;;;;12.27;10.67;;;14.70;96.80;;;;;;4230111;28;20221;-71
2022/12/05 00:07:54;;;;;;;14.60;11.83;;;14.70;96.80;;;;;;4226732;27;20271;-71
2022/12/05 00:09:56;;;;;;;13.70;11.47;;;14.70;96.70;;;;;;4229046;27;20322;-71
2022/12/05 00:11:59;;;;;;;13.30;11.20;;;14.60;96.80;;;;;;4229784;27;20210;-71
2022/12/05 00:14:02;;;;;;;15.83;11.40;;;14.60;96.80;;;;;;4225774;28;20230;-71
2022/12/05 00:16:08;;;;;;;14.30;11.40;;;14.60;96.90;;;;;;4228847;28;20209;-71
2022/12/05 00:18:10;;;;;;;13.57;11.10;;;14.60;96.90;;;;;;4225586;27;20287;-71
2022/12/05 00:20:13;;;;;;;16.50;11.57;;;14.60;96.90;;;;;;4225344;27;20566;-71
2022/12/05 00:22:15;;;;;;;12.63;10.97;;;14.60;96.80;;;;;;4220259;27;20643;-71
2022/12/05 00:24:19;;;;;;;14.70;11.10;;;14.60;96.90;;;;;;4222675;28;20264;-71
2022/12/05 00:26:22;;;;;;;14.07;11.47;;;14.60;97.10;;;;;;4229361;28;20218;-71
2022/12/05 00:28:24;;;;;;;14.37;11.33;;;14.60;97.00;;;;;;4226892;28;20625;-71
2022/12/05 00:30:27;;;;;;;14.57;11.87;;;14.60;97.00;;;;;;4221139;28;20209;-71
2022/12/05 00:32:30;;;;;;;15.23;11.43;;;14.60;96.90;;;;;;4230954;28;20210;-71
2022/12/05 00:34:32;;;;;;;14.37;11.03;;;14.60;97.00;;;;;;4230091;28;20213;-71
2022/12/05 00:36:36;;;;;;;15.43;11.67;;;14.60;97.00;;;;;;4226587;28;20303;-71
2022/12/05 00:38:38;;;;;;;14.93;11.83;;;14.60;97.40;;;;;;4230465;28;20251;-71
2022/12/05 00:40:42;;;;;;;15.43;11.17;;;14.60;97.00;;;;;;4229905;28;20275;-71
2022/12/05 00:42:44;;;;;;;15.90;11.80;;;14.60;97.00;;;;;;4225916;28;20210;-70
2022/12/05 00:44:49;;;;;;;14.30;11.20;;;14.60;97.00;;;;;;4228638;28;20213;-71
2022/12/05 00:46:51;;;;;;;17.50;11.83;;;14.60;97.00;;;;;;4226871;28;20263;-71
2022/12/05 00:48:54;;;;;;;14.53;11.70;;;14.60;97.10;;;;;;4227517;28;20284;-80
2022/12/05 00:51:04;;;;;;;13.47;11.53;;;14.60;97.00;;;;;;4230292;28;20638;-79
2022/12/05 00:53:06;;;;;;;13.60;10.73;;;14.60;97.20;;;;;;4229897;28;20217;-80
2022/12/05 00:55:09;;;;;;;15.07;11.27;;;14.60;97.10;;;;;;4227470;28;20214;-80
2022/12/05 00:57:13;;;;;;;13.40;10.87;;;14.60;97.10;;;;;;4227951;28;20214;-80
2022/12/05 00:59:16;;;;;;;16.37;11.80;;;14.60;97.20;;;;;;4230027;28;20235;-80
2022/12/05 01:01:21;;;;;;;15.53;11.60;;;14.60;97.20;;;;;;4227826;28;20267;-80
2022/12/05 01:03:24;;;;;;;13.67;11.20;;;14.60;97.20;;;;;;4229594;28;20225;-80
2022/12/05 01:05:26;;;;;;;15.23;11.57;;;14.60;97.30;;;;;;4228332;28;20283;-79
2022/12/05 01:07:28;;;;;;;16.97;12.27;;;14.60;97.20;;;;;;4228100;28;20214;-80
2022/12/05 01:09:31;;;;;;;14.87;11.17;;;14.60;97.20;;;;;;4229129;28;20307;-80
2022/12/05 01:11:33;;;;;;;14.63;11.63;;;14.60;97.40;;;;;;4228220;28;20230;-79
2022/12/05 01:13:37;;;;;;;15.10;11.17;;;14.60;97.20;;;;;;4228729;28;20267;-80
2022/12/05 01:15:39;;;;;;;14.17;11.53;;;14.60;97.40;;;;;;4229295;27;20270;-80
2022/12/05 01:17:42;;;;;;;13.70;10.73;;;14.60;97.20;;;;;;4226579;28;20611;-80
2022/12/05 01:19:44;;;;;;;15.40;11.70;;;14.60;97.40;;;;;;4228474;28;20614;-80
2022/12/05 01:21:47;;;;;;;14.07;10.93;;;14.60;97.40;;;;;;4232476;27;20232;-80
2022/12/05 01:23:50;;;;;;;16.60;11.70;;;14.60;97.40;;;;;;4224293;28;20206;-80
2022/12/05 01:25:53;;;;;;;14.20;11.07;;;14.60;97.30;;;;;;4241102;27;20258;-80
2022/12/05 01:27:55;;;;;;;16.53;12.17;;;14.60;97.80;;;;;;4239384;27;20616;-80
2022/12/05 01:29:59;;;;;;;13.40;11.13;;;14.60;97.40;;;;;;4233828;27;20697;-79
2022/12/05 01:32:03;;;;;;;14.63;11.63;;;14.60;97.70;;;;;;4241826;27;20212;-80
2022/12/05 01:34:07;;;;;;;14.47;11.17;;;14.60;97.40;;;;;;4240163;27;20244;-80
2022/12/05 01:36:11;;;;;;;15.73;11.27;;;14.60;97.50;;;;;;4228314;27;20221;-80
2022/12/05 01:38:14;;;;;;;14.50;11.63;;;14.60;97.50;;;;;;4243620;27;20217;-80
2022/12/05 01:40:17;;;;;;;15.37;11.47;;;14.60;97.50;;;;;;4241747;27;20606;-80
2022/12/05 01:42:19;;;;;;;16.67;11.50;;;14.60;97.50;;;;;;4235547;27;20217;-80
2022/12/05 01:44:59;;;;;;;15.83;11.23;;;14.60;97.60;;;;;;4238202;27;20557;-80
2022/12/05 01:47:03;;;;;;;14.53;11.37;;;14.60;97.70;;;;;;4226308;27;20218;-80
2022/12/05 01:49:10;;;;;;;13.63;10.30;;;14.60;97.60;;;;;;4228922;28;20627;-80
2022/12/05 01:51:12;;;;;;;14.77;11.50;;;14.60;97.60;;;;;;4229569;28;20213;-80
2022/12/05 01:53:16;;;;;;;16.10;11.90;;;14.60;97.60;;;;;;4226981;28;20267;-80
2022/12/05 01:55:19;;;;;;;16.80;12.03;;;14.60;97.70;;;;;;4220037;28;20218;-80
2022/12/05 01:57:23;;;;;;;17.73;12.17;;;14.60;97.60;;;;;;4216343;28;20667;-80
2022/12/05 01:59:28;;;;;;;15.73;11.67;;;14.60;97.80;;;;;;4223867;28;20724;-80
2022/12/05 02:01:30;;;;;;;16.83;11.53;;;14.60;97.60;;;;;;4218721;28;20279;-80
2022/12/05 02:03:35;;;;;;;16.30;11.67;;;14.60;97.80;;;;;;4228735;28;20333;-80
2022/12/05 02:05:38;;;;;;;15.53;12.03;;;14.60;97.60;;;;;;4218290;28;20219;-80
2022/12/05 02:07:42;;;;;;;14.73;11.60;;;14.60;97.80;;;;;;4228540;28;20225;-79
2022/12/05 02:09:45;;;;;;;15.50;11.10;;;14.60;97.70;;;;;;4221775;28;20234;-80
2022/12/05 02:11:55;;;;;;;16.57;12.50;;;14.60;97.80;;;;;;4220052;28;20281;-80
2022/12/05 02:14:16;;;;;;;14.27;11.60;;;14.60;97.80;;;;;;4221335;28;20633;-79
2022/12/05 02:16:24;;;;;;;13.93;11.07;;;14.60;97.80;;;;;;4226808;28;20263;-80
2022/12/05 02:18:42;;;;;;;15.13;11.20;;;14.60;97.80;;;;;;4229892;28;20649;-80
2022/12/05 02:21:04;;;;;;;14.90;11.87;;;14.60;97.80;;;;;;4229886;28;20270;-80
2022/12/05 02:23:45;;;;;;;14.93;11.30;;;14.60;97.90;;;;;;4225931;28;20234;-80
2022/12/05 02:26:13;;;;;;;16.90;11.47;;;14.50;97.90;;;;;;4216651;28;20602;-80
2022/12/05 02:28:50;;;;;;;15.13;10.77;;;14.60;97.80;;;;;;4223915;28;20266;-80
2022/12/05 02:30:58;;;;;;;17.40;11.47;;;14.60;97.90;;;;;;4204733;28;20708;-80
2022/12/05 02:33:10;;;;;;;15.97;11.83;;;14.60;97.80;;;;;;4229748;28;20309;-80
2022/12/05 02:35:22;;;;;;;16.47;11.93;;;14.60;98.00;;;;;;4228639;28;20275;-80
2022/12/05 02:37:29;;;;;;;15.93;12.17;;;14.50;97.90;;;;;;4230140;28;20214;-80
2022/12/05 02:39:43;;;;;;;14.63;11.30;;;14.60;97.80;;;;;;4226490;28;20210;-80
2022/12/05 02:41:51;;;;;;;15.87;11.80;;;14.60;97.90;;;;;;4226994;28;20287;-80
2022/12/05 02:43:57;;;;;;;16.70;12.07;;;14.50;97.90;;;;;;4229745;28;20235;-79
2022/12/05 02:46:07;;;;;;;17.60;11.43;;;14.60;97.90;;;;;;4226649;28;20214;-80
2022/12/05 02:48:12;;;;;;;17.07;11.90;;;14.50;98.00;;;;;;4217404;27;20229;-80
2022/12/05 02:50:19;;;;;;;15.10;11.23;;;14.50;97.90;;;;;;4230548;28;20241;-80
2022/12/05 02:52:23;;;;;;;16.50;11.43;;;14.60;97.90;;;;;;4230705;28;21031;-80
2022/12/05 02:54:29;;;;;;;16.47;12.43;;;14.60;98.10;;;;;;4232156;28;20267;-80
2022/12/05 02:56:33;;;;;;;14.33;11.63;;;14.60;98.00;;;;;;4230336;27;20218;-80
2022/12/05 02:58:41;;;;;;;16.27;11.50;;;14.60;98.10;;;;;;4231928;27;20243;-79
2022/12/05 03:00:47;;;;;;;15.80;12.37;;;14.50;98.00;;;;;;4228317;28;20624;-80
2022/12/05 03:02:56;;;;;;;16.27;11.93;;;14.60;98.00;;;;;;4229289;28;20654;-79
2022/12/05 03:05:04;;;;;;;17.53;12.33;;;14.60;98.00;;;;;;4230867;28;20620;-80
2022/12/05 03:07:10;;;;;;;15.27;11.27;;;14.60;98.00;;;;;;4228818;28;20213;-80
2022/12/05 03:09:16;;;;;;;15.83;11.40;;;14.60;98.00;;;;;;4228605;28;20221;-80
2022/12/05 03:11:19;;;;;;;14.80;11.27;;;14.60;98.10;;;;;;4231243;28;20241;-80
2022/12/05 03:13:25;;;;;;;16.83;12.10;;;14.50;98.10;;;;;;4230461;27;20226;-79
2022/12/05 03:15:32;;;;;;;17.13;12.07;;;14.60;98.10;;;;;;4229803;27;20267;-80
2022/12/05 03:17:40;;;;;;;15.70;11.07;;;14.60;98.20;;;;;;4230701;28;20217;-79
2022/12/05 03:19:50;;;;;;;15.93;11.43;;;14.60;98.10;;;;;;4228210;28;20726;-80
2022/12/05 03:21:56;;;;;;;16.70;12.80;;;14.60;98.20;;;;;;4234283;27;20228;-79
2022/12/05 03:24:03;;;;;;;14.17;10.83;;;14.50;98.10;;;;;;4243829;27;20216;-80
2022/12/05 03:26:13;;;;;;;15.10;11.37;;;14.60;98.10;;;;;;4232900;27;20624;-80
2022/12/05 03:28:21;;;;;;;14.70;11.83;;;14.50;98.10;;;;;;4235512;27;20235;-80
2022/12/05 03:30:25;;;;;;;16.57;12.07;;;14.60;98.20;;;;;;4236316;27;20256;-80
2022/12/05 03:32:33;;;;;;;17.57;12.93;;;14.60;98.20;;;;;;4218939;28;20272;-80
2022/12/05 03:34:50;;;;;;;16.23;12.03;;;14.50;98.20;;;;;;4229196;28;20258;-80
2022/12/05 03:36:53;;;;;;;15.53;11.97;;;14.50;98.20;;;;;;4237599;27;20210;-80
2022/12/05 03:39:02;;;;;;;15.53;12.07;;;14.50;98.20;;;;;;4236783;27;20213;-80
2022/12/05 03:41:09;;;;;;;17.30;12.43;;;14.60;98.30;;;;;;4241134;27;20247;-80
2022/12/05 03:43:22;;;;;;;16.07;12.50;;;14.50;98.20;;;;;;4236474;27;20268;-80
2022/12/05 03:45:31;;;;;;;15.17;11.60;;;14.50;98.30;;;;;;4242624;27;20212;-80
2022/12/05 03:47:41;;;;;;;14.77;11.90;;;14.60;98.30;;;;;;4230324;27;20218;-80
2022/12/05 03:49:49;;;;;;;15.77;11.37;;;14.60;98.30;;;;;;4236042;27;20209;-80
2022/12/05 03:51:57;;;;;;;14.83;11.60;;;14.50;98.30;;;;;;4245348;27;20336;-80
2022/12/05 03:54:04;;;;;;;16.80;12.13;;;14.50;98.30;;;;;;4242632;27;20268;-80
2022/12/05 03:56:10;;;;;;;17.17;11.80;;;14.60;98.30;;;;;;4236741;27;20209;-80
2022/12/05 03:58:19;;;;;;;16.10;11.53;;;14.50;98.30;;;;;;4245176;27;20213;-80
2022/12/05 04:00:23;;;;;;;15.80;11.97;;;14.50;98.30;;;;;;4235442;27;20209;-80
2022/12/05 04:02:30;;;;;;;16.60;12.00;;;14.50;98.30;;;;;;4243333;27;20217;-80
2022/12/05 04:04:37;;;;;;;17.00;12.10;;;14.60;98.40;;;;;;4229991;27;20214;-80
2022/12/05 04:06:44;;;;;;;18.17;12.80;;;14.60;98.40;;;;;;4234967;27;20259;-80
2022/12/05 04:08:51;;;;;;;16.03;12.10;;;14.60;98.40;;;;;;4245345;27;20281;-80
2022/12/05 04:10:56;;;;;;;16.03;11.67;;;14.60;98.40;;;;;;4233332;27;20254;-80
2022/12/05 04:13:16;;;;;;;16.93;12.53;;;14.50;98.40;;;;;;4236916;27;20227;-80
2022/12/05 04:15:22;;;;;;;16.13;11.90;;;14.50;98.40;;;;;;4239955;27;20218;-80
2022/12/05 04:17:33;;;;;;;17.17;11.97;;;14.60;98.40;;;;;;4239039;27;20217;-80
2022/12/05 04:22:02;;;;;;;16.63;12.37;;;14.60;98.50;;;;;;4232985;27;20686;-80
2022/12/05 04:26:31;;;;;;;17.03;12.57;;;14.60;98.50;;;;;;4243377;27;20190;-80
2022/12/05 04:28:39;;;;;;;15.10;11.50;;;14.50;98.50;;;;;;4242776;27;20312;-80
2022/12/05 04:30:46;;;;;;;15.73;11.50;;;14.50;98.50;;;;;;4236805;27;20277;-80
2022/12/05 04:32:57;;;;;;;17.97;12.40;;;14.50;98.50;;;;;;4235005;27;20217;-80
2022/12/05 04:35:06;;;;;;;15.90;11.73;;;14.50;98.50;;;;;;4238306;27;20221;-80
2022/12/05 04:37:18;;;;;;;16.20;12.63;;;14.50;98.70;;;;;;4219693;27;20210;-80
2022/12/05 04:39:25;;;;;;;17.33;12.73;;;14.50;98.60;;;;;;4231939;27;20230;-79
2022/12/05 04:41:32;;;;;;;16.33;11.63;;;14.50;98.60;;;;;;4234318;27;20202;-80
2022/12/05 04:43:39;;;;;;;15.80;12.23;;;14.50;98.60;;;;;;4240147;27;20222;-80
2022/12/05 04:45:43;;;;;;;15.07;11.40;;;14.50;98.60;;;;;;4242741;27;20255;-80
2022/12/05 04:47:51;;;;;;;16.00;11.87;;;14.50;98.60;;;;;;4237987;27;20206;-80
2022/12/05 04:49:55;;;;;;;16.77;12.00;;;14.50;98.70;;;;;;4240994;27;20294;-80
2022/12/05 04:52:00;;;;;;;15.30;11.93;;;14.50;98.60;;;;;;4243466;27;20278;-79
2022/12/05 04:54:09;;;;;;;16.73;12.33;;;14.50;98.70;;;;;;4231027;27;20260;-80
2022/12/05 04:56:15;;;;;;;17.73;11.87;;;14.50;98.70;;;;;;4224819;27;20213;-80
2022/12/05 04:58:20;;;;;;;17.10;12.00;;;14.50;98.70;;;;;;4239929;27;20262;-80
2022/12/05 05:00:23;;;;;;;16.67;12.37;;;14.50;98.80;;;;;;4238122;27;20229;-80
2022/12/05 05:02:32;;;;;;;16.07;12.10;;;14.50;98.70;;;;;;4235687;27;20263;-80
2022/12/05 05:04:38;;;;;;;16.57;11.97;;;14.50;98.80;;;;;;4231540;27;20262;-80
2022/12/05 05:06:41;;;;;;;15.63;11.73;;;14.50;98.50;;;;;;4226704;28;20213;-80
2022/12/05 05:08:49;;;;;;;16.47;12.53;;;14.50;98.70;;;;;;4231356;27;20222;-80
2022/12/05 05:11:03;;;;;;;15.30;11.33;;;14.50;98.80;;;;;;4220894;28;20216;-80
2022/12/05 05:13:06;;;;;;;15.53;11.93;;;14.50;98.90;;;;;;4227870;27;20243;-80
2022/12/05 05:15:09;;;;;;;17.10;12.23;;;14.50;98.90;;;;;;4238258;27;20260;-79
2022/12/05 05:17:11;;;;;;;17.63;12.80;;;14.50;98.80;;;;;;4224809;28;20305;-80
2022/12/05 05:19:13;;;;;;;15.57;12.47;;;14.50;98.90;;;;;;4237309;27;20270;-80
2022/12/05 05:21:19;;;;;;;14.13;11.47;;;14.50;98.80;;;;;;4235056;27;20271;-80
2022/12/05 05:23:21;;;;;;;15.13;11.27;;;14.50;98.90;;;;;;4227383;28;20635;-80
2022/12/05 05:25:25;;;;;;;16.00;11.87;;;14.50;98.90;;;;;;4229044;28;20209;-80
2022/12/05 05:27:28;;;;;;;16.20;11.77;;;14.50;98.90;;;;;;4226317;28;20276;-80
2022/12/05 05:29:31;;;;;;;13.47;11.40;;;14.50;99.20;;;;;;4226432;27;20263;-79
2022/12/05 05:31:33;;;;;;;17.40;12.03;;;14.50;98.90;;;;;;4229653;28;20233;-80
2022/12/05 05:33:36;;;;;;;14.37;11.47;;;14.50;98.90;;;;;;4226076;28;20662;-80
2022/12/05 05:35:39;;;;;;;14.13;11.90;;;14.50;99.00;;;;;;4229239;28;20226;-79
2022/12/05 05:37:41;;;;;;;16.70;12.23;;;14.50;98.90;;;;;;4227682;28;20218;-80
2022/12/05 05:39:43;;;;;;;15.90;12.33;;;14.50;99.00;;;;;;4226790;28;20256;-80
2022/12/05 05:41:46;;;;;;;16.60;12.40;;;14.50;99.00;;;;;;4228991;28;20213;-80
2022/12/05 05:43:50;;;;;;;15.27;11.67;;;14.50;99.00;;;;;;4229297;28;20719;-80
2022/12/05 05:45:53;;;;;;;16.60;12.17;;;14.50;99.00;;;;;;4226266;28;20238;-79
2022/12/05 05:47:55;;;;;;;15.13;11.63;;;14.50;99.00;;;;;;4223123;28;20237;-79
2022/12/05 05:49:57;;;;;;;16.23;11.50;;;14.50;99.40;;;;;;4227907;28;20267;-80
2022/12/05 05:51:59;;;;;;;16.37;11.83;;;14.50;99.10;;;;;;4225410;28;20230;-80
2022/12/05 05:54:02;;;;;;;17.10;12.50;;;14.50;99.20;;;;;;4229299;28;20707;-80
2022/12/05 05:56:05;;;;;;;14.70;11.43;;;14.50;99.10;;;;;;4226868;28;20283;-80
2022/12/05 05:58:08;;;;;;;16.27;11.90;;;14.50;99.10;;;;;;4228101;28;20214;-80
2022/12/05 06:00:13;;;;;;;14.93;10.67;;;14.50;99.00;;;;;;4226033;28;20206;-80
2022/12/05 06:02:15;;;;;;;14.97;11.57;;;14.50;99.20;;;;;;4223812;28;20271;-80
2022/12/05 06:04:18;;;;;;;15.70;11.07;;;14.50;99.00;;;;;;4228842;28;20229;-80
2022/12/05 06:06:21;;;;;;;15.97;12.30;;;14.50;99.10;;;;;;4227838;28;20259;-79
2022/12/05 06:08:23;;;;;;;15.60;11.73;;;14.50;99.10;;;;;;4226144;28;20221;-79
2022/12/05 06:10:25;;;;;;;15.83;11.70;;;14.50;99.10;;;;;;4227615;28;20218;-79
2022/12/05 06:12:28;;;;;;;16.53;12.47;;;14.50;99.00;;;;;;4228509;28;20264;-80
2022/12/05 06:14:30;;;;;;;16.80;12.00;;;14.50;99.20;;;;;;4226376;28;20214;-80
2022/12/05 06:16:34;;;;;;;17.27;12.87;;;14.50;99.20;;;;;;4227469;28;20259;-80
2022/12/05 06:18:36;;;;;;;18.43;12.93;;;14.50;99.20;;;;;;4228461;28;20214;-80
2022/12/05 06:20:39;;;;;;;15.87;12.27;;;14.50;99.10;;;;;;4223899;28;20624;-80
2022/12/05 06:22:41;;;;;;;16.17;12.00;;;14.50;99.20;;;;;;4238405;27;20228;-80
2022/12/05 06:24:44;;;;;;;16.37;12.63;;;14.50;99.30;;;;;;4239955;27;20259;-80
2022/12/05 06:26:46;;;;;;;16.07;11.87;;;14.50;99.20;;;;;;4240073;27;20279;-80
2022/12/05 06:28:49;;;;;;;16.00;11.70;;;14.50;99.20;;;;;;4247461;27;20606;-80
2022/12/05 06:30:51;;;;;;;15.33;11.67;;;14.50;99.20;;;;;;4235372;27;20205;-80
2022/12/05 06:32:55;;;;;;;15.87;11.87;;;14.50;99.40;;;;;;4235645;27;20290;-80
2022/12/05 06:34:57;;;;;;;16.47;12.20;;;14.40;99.20;;;;;;4242493;27;20923;-80
2022/12/05 06:37:00;;;;;;;15.63;10.80;;;14.50;99.90;;;;;;4248934;27;20225;-80
2022/12/05 06:39:03;;;;;;;15.30;11.63;;;14.40;99.20;;;;;;4239268;27;20205;-80
2022/12/05 06:41:06;;;;;;;15.77;11.53;;;14.40;99.50;;;;;;4244978;27;20274;-80
2022/12/05 06:43:09;;;;;;;14.93;11.87;;;14.40;99.40;;;;;;4240132;27;20214;-81
2022/12/05 06:45:12;;;;;;;14.70;11.60;;;14.50;99.20;;;;;;4240768;27;21785;-80
2022/12/05 06:47:14;;;;;;;15.17;12.13;;;14.60;99.20;;;;;;4248454;27;20226;-80
2022/12/05 06:49:18;;;;;;;17.43;12.13;;;14.60;99.30;;;;;;4244682;27;20554;-80
2022/12/05 06:51:20;;;;;;;16.80;11.57;;;14.50;99.50;;;;;;4243920;27;20217;-80
2022/12/05 06:53:23;;;;;;;18.30;12.60;;;14.60;99.60;;;;;;4246152;27;20561;-80
2022/12/05 06:55:25;;;;;;;15.23;11.77;;;14.60;99.50;;;;;;4241143;27;20218;-80
2022/12/05 06:57:28;;;;;;;16.93;11.47;;;14.60;99.60;;;;;;4246192;27;20217;-80
2022/12/05 06:59:30;;;;;;;16.37;11.47;;;14.70;99.70;;;;;;4245279;27;20269;-80
2022/12/05 07:01:38;;;;;;;14.73;11.73;;;14.60;99.70;;;;;;4240983;27;20239;-80
2022/12/05 07:03:42;;;;;;;14.43;11.77;;;14.70;99.70;;;;;;4245185;27;20209;-80
2022/12/05 07:05:46;;;;;;;16.23;12.00;;;14.70;99.70;;;;;;4246142;27;20220;-80
2022/12/05 07:07:48;;;;;;;14.47;11.53;;;14.70;99.80;;;;;;4234041;27;20218;-80
2022/12/05 07:09:53;;;;;;;16.20;11.57;;;14.70;99.90;;;;;;4241252;27;20209;-81
2022/12/05 07:11:56;;;;;;;14.97;11.00;;;14.70;99.90;;;;;;4243068;27;20217;-80
2022/12/05 07:13:58;;;;;;;16.30;12.03;;;14.70;99.90;;;;;;4241793;27;20222;-81
2022/12/05 07:16:01;;;;;;;16.87;11.67;;;14.80;99.90;;;;;;4244215;27;20205;-80
2022/12/05 07:18:03;;;;;;;15.13;11.17;;;14.80;99.90;;;;;;4238251;27;20258;-79
2022/12/05 07:20:09;;;;;;;16.53;11.33;;;14.80;99.90;;;;;;4237521;27;20209;-79
2022/12/05 07:22:12;;;;;;;13.90;10.73;;;14.90;99.90;;;;;;4242595;27;20282;-79
2022/12/05 07:24:15;;;;;;;16.80;11.53;;;14.90;99.90;;;;;;4239198;27;20202;-80
2022/12/05 07:26:20;;;;;;;15.43;11.63;;;14.90;99.90;;;;;;4238934;27;20221;-78
2022/12/05 07:28:22;;;;;;;14.97;11.87;;;14.90;99.90;;;;;;4243959;27;20254;-78
2022/12/05 07:30:25;;;;;;;15.87;11.20;;;14.90;99.90;;;;;;4239452;27;20261;-78
2022/12/05 07:32:30;;;;;;;14.57;10.80;;;15.00;99.90;;;;;;4239805;27;20289;-78
2022/12/05 07:34:33;;;;;;;13.93;10.77;;;15.00;99.90;;;;;;4240101;27;20213;-79
2022/12/05 07:36:35;;;;;;;16.00;10.60;;;15.00;99.90;;;;;;4240438;27;20218;-78
2022/12/05 07:38:40;;;;;;;15.67;10.70;;;15.00;99.90;;;;;;4242632;27;20660;-78
2022/12/05 07:40:42;;;;;;;13.53;9.97;;;15.10;99.90;;;;;;4239357;27;20210;-78
2022/12/05 07:42:47;;;;;;;15.90;11.63;;;15.10;99.90;;;;;;4234591;27;20222;-77
2022/12/05 07:44:49;;;;;;;14.53;11.07;;;15.20;99.90;;;;;;4242283;27;20206;-76
2022/12/05 07:46:52;;;;;;;14.60;10.37;;;15.20;99.90;;;;;;4237810;27;20281;-78
2022/12/05 07:48:54;;;;;;;15.80;10.90;;;15.20;99.90;;;;;;4240781;27;20275;-77
2022/12/05 07:51:00;;;;;;;16.20;11.33;;;15.20;99.90;;;;;;4242213;27;20213;-76
2022/12/05 07:53:03;;;;;;;17.10;10.73;;;15.30;99.70;;;;;;4241484;27;20277;-78
2022/12/05 07:55:08;;;;;;;16.23;10.87;;;15.30;99.80;;;;;;4235997;27;20615;-78
2022/12/05 07:57:10;;;;;;;16.33;11.03;;;15.30;99.80;;;;;;4246402;27;20213;-78
2022/12/05 07:59:13;;;;;;;15.93;11.30;;;15.30;99.90;;;;;;4244462;27;20217;-79
2022/12/05 08:01:17;;;;;;;20.03;11.73;;;15.30;99.90;;;;;;4246058;27;20216;-80
2022/12/05 08:03:20;;;;;;;18.17;11.10;;;15.40;99.90;;;;;;4244807;27;20213;-80
2022/12/05 08:05:22;;;;;;;20.13;11.47;;;15.40;99.90;;;;;;4244238;27;20216;-76
2022/12/05 08:07:24;;;;;;;49.33;14.60;;;15.40;99.90;;;;;;4245727;27;20217;-80
2022/12/05 08:09:27;;;;;;;41.27;12.67;;;15.40;99.90;;;;;;4250907;27;20212;-79
2022/12/05 08:11:34;;;;;;;30.63;12.20;;;15.30;99.90;;;;;;4239505;27;20213;-77
2022/12/05 08:13:37;;;;;;;29.73;12.47;;;15.20;99.90;;;;;;4240033;27;20241;-85
2022/12/05 08:15:39;;;;;;;37.90;14.80;;;15.30;99.90;;;;;;4237990;27;20756;-78
2022/12/05 08:17:42;;;;;;;35.40;12.90;;;15.30;99.90;;;;;;4242654;27;20216;-78
2022/12/05 08:19:44;;;;;;;46.37;13.13;;;15.50;99.90;;;;;;4239337;27;20214;-79
2022/12/05 08:21:46;;;;;;;24.53;13.03;;;15.50;99.90;;;;;;4234063;27;20230;-84
2022/12/05 08:23:49;;;;;;;26.90;13.07;;;15.70;99.90;;;;;;4228553;27;20228;-79
2022/12/05 08:25:51;;;;;;;28.73;12.67;;;15.90;99.90;;;;;;4227131;27;20218;-79
2022/12/05 08:27:55;;;;;;;29.07;11.77;;;16.00;99.90;;;;;;4222225;28;20217;-82
2022/12/05 08:29:57;;;;;;;32.67;13.13;;;16.30;99.90;;;;;;4222859;28;20707;-80
2022/12/05 08:31:59;;;;;;;24.02;12.13;;;16.30;99.90;;;;;;4225394;27;20214;-80
2022/12/05 08:34:02;;;;;;;30.67;13.10;;;16.40;99.50;;;;;;4218568;27;20285;-81
2022/12/05 08:36:06;;;;;;;23.70;11.77;;;16.60;99.00;;;;;;4228539;27;20209;-85
2022/12/05 08:38:09;;;;;;;23.30;11.98;;;16.60;98.90;;;;;;4221555;28;20262;-79
2022/12/05 08:40:12;;;;;;;27.60;12.60;;;16.70;99.10;;;;;;4220716;28;20266;-84
2022/12/05 08:42:14;;;;;;;24.73;12.25;;;16.70;99.20;;;;;;4222236;28;20218;-82
2022/12/05 08:44:18;;;;;;;19.73;11.93;;;16.80;99.20;;;;;;4221725;27;20213;-79
2022/12/05 08:46:20;;;;;;;22.33;11.77;;;16.70;98.90;;;;;;4229138;27;20281;-80
2022/12/05 08:48:23;;;;;;;23.50;11.82;;;16.70;99.10;;;;;;4227582;27;20210;-81
2022/12/05 08:50:26;;;;;;;16.70;11.00;;;16.90;99.20;;;;;;4229053;28;20267;-80
2022/12/05 08:52:28;;;;;;;17.73;11.18;;;17.00;99.30;;;;;;4230870;27;20713;-79
2022/12/05 08:54:30;;;;;;;18.95;11.98;;;17.00;98.90;;;;;;4218490;27;20332;-76
2022/12/05 08:56:33;;;;;;;24.33;11.20;;;17.00;99.10;;;;;;4220962;27;20209;-78
2022/12/05 08:58:35;;;;;;;18.48;11.05;;;16.90;99.60;;;;;;4215066;27;20209;-80
2022/12/05 09:00:40;;;;;;;21.33;11.05;;;17.00;99.40;;;;;;4216606;27;20248;-79
2022/12/05 09:02:42;;;;;;;20.25;11.98;;;17.10;99.10;;;;;;4213785;27;20218;-77
2022/12/05 09:04:45;;;;;;;21.85;11.52;;;17.10;99.00;;;;;;4222479;28;20213;-78
2022/12/05 09:06:47;;;;;;;18.85;10.77;;;17.20;99.10;;;;;;4217326;28;20607;-78
2022/12/05 09:08:53;;;;;;;20.83;10.40;;;17.30;99.10;;;;;;4220157;27;20268;-78
2022/12/05 09:10:55;;;;;;;17.88;11.18;;;17.30;99.10;;;;;;4221481;28;20219;-80
2022/12/05 09:12:58;;;;;;;17.10;10.80;;;17.30;99.00;;;;;;4216106;27;20217;-78
2022/12/05 09:15:00;;;;;;;18.48;10.35;;;17.30;99.10;;;;;;4216829;27;20260;-76
2022/12/05 09:17:04;;;;;;;15.70;10.95;;;17.40;99.20;;;;;;4216755;28;20214;-73
2022/12/05 09:19:11;;;;;;;17.08;11.05;;;17.50;99.00;;;;;;4221251;27;21006;-73
2022/12/05 09:21:15;;;;;;;19.92;10.60;;;17.60;99.30;;;;;;4218794;27;20222;-75
2022/12/05 09:23:17;;;;;;;17.35;10.93;;;17.70;99.60;;;;;;4213332;27;20741;-75
2022/12/05 09:25:20;;;;;;;19.25;10.98;;;17.80;99.30;;;;;;4221704;28;20250;-79
2022/12/05 09:27:22;;;;;;;22.65;11.05;;;17.80;99.40;;;;;;4227517;27;20267;-76
2022/12/05 09:29:27;;;;;;;17.60;10.40;;;17.90;99.40;;;;;;4223126;28;20300;-77
2022/12/05 09:31:30;;;;;;;16.10;9.82;;;17.90;99.10;;;;;;4217504;28;20210;-75
2022/12/05 09:33:35;;;;;;;15.40;10.05;;;18.00;99.40;;;;;;4222231;27;20259;-75
2022/12/05 09:35:39;;;;;;;20.50;10.35;;;18.00;99.10;;;;;;4223485;27;20291;-79
2022/12/05 09:37:42;;;;;;;18.67;10.93;;;18.10;99.50;;;;;;4221959;27;20270;-77
2022/12/05 09:39:44;;;;;;;15.70;10.45;;;18.10;99.50;;;;;;4223795;28;20220;-77
2022/12/05 09:42:31;;;;;;;13.82;9.60;;;18.10;99.50;;;;;;4223154;28;20599;-75
2022/12/05 09:44:49;;;;;;;14.68;9.13;;;18.10;99.90;;;;;;4183814;28;20210;-74
2022/12/05 09:46:56;;;;;;;16.55;9.65;;;18.20;99.80;;;;;;4219211;28;20209;-76
2022/12/05 09:49:01;;;;;;;17.40;10.65;;;18.20;99.60;;;;;;4220333;28;20217;-75
2022/12/05 09:51:04;;;;;;;16.77;10.70;;;18.30;99.60;;;;;;4223461;27;20272;-73
2022/12/05 09:53:13;;;;;;;18.75;10.07;;;18.20;99.60;;;;;;4223148;28;20210;-73
2022/12/05 09:55:18;;;;;;;16.10;9.90;;;18.30;99.50;;;;;;4220486;28;20267;-73
2022/12/05 09:57:29;;;;;;;16.35;9.52;;;18.30;99.50;;;;;;4220208;27;20214;-74
2022/12/05 09:59:31;;;;;;;16.05;10.13;;;18.30;99.50;;;;;;4220413;28;20244;-76
2022/12/05 10:01:41;;;;;;;17.40;10.10;;;18.30;99.70;;;;;;4218290;27;20234;-76
2022/12/05 10:03:47;;;;;;;14.00;10.23;;;18.30;99.60;;;;;;4221338;27;20274;-75
2022/12/05 10:05:57;;;;;;;15.57;10.65;;;18.20;99.30;;;;;;4222826;28;20221;-76
2022/12/05 10:08:05;;;;;;;14.25;9.63;;;18.30;99.60;;;;;;4224473;28;20217;-76
2022/12/05 10:10:25;;;;;;;17.52;9.82;;;18.30;99.60;;;;;;4222843;28;20619;-78
2022/12/05 10:12:45;;;;;;;15.30;9.95;;;18.40;99.60;;;;;;4223448;28;20284;-75
2022/12/05 10:15:01;;;;;;;19.98;10.05;;;18.20;99.70;;;;;;4218597;28;20270;-75
2022/12/05 10:17:08;;;;;;;19.08;9.63;;;18.20;99.90;;;;;;4222706;28;20213;-75
2022/12/05 10:19:15;;;;;;;19.15;9.43;;;18.20;99.90;;;;;;4221144;28;20274;-73
2022/12/05 10:21:24;;;;;;;11.73;9.07;;;18.20;99.90;;;;;;4220414;28;20213;-73
2022/12/05 10:23:32;;;;;;;13.95;9.35;;;18.40;99.90;;;;;;4238659;27;20261;-74
2022/12/05 10:25:35;;;;;;;15.52;9.80;;;18.30;99.90;;;;;;4239624;27;20213;-74
2022/12/05 10:27:40;;;;;;;15.00;9.25;;;18.40;99.90;;;;;;4241415;27;20220;-74
2022/12/05 10:29:48;;;;;;;13.80;9.23;;;18.40;99.90;;;;;;4243191;27;20253;-75
2022/12/05 10:31:57;;;;;;;18.33;9.25;;;18.50;99.90;;;;;;4237079;27;20308;-74
2022/12/05 10:34:04;;;;;;;13.88;9.05;;;18.50;99.90;;;;;;4236589;27;20621;-74
2022/12/05 10:36:11;;;;;;;12.18;8.70;;;18.50;99.90;;;;;;4239183;27;20216;-74
2022/12/05 10:38:22;;;;;;;12.05;8.40;;;18.50;99.90;;;;;;4240519;27;20225;-74
2022/12/05 10:40:33;;;;;;;15.25;9.23;;;18.50;99.90;;;;;;4235072;27;20237;-75
2022/12/05 10:42:39;;;;;;;11.55;8.00;;;18.50;99.90;;;;;;4235871;27;20209;-74